• Join FlightAware (Why Join?)
  • Login
  • US Flag 
02:54AM EDT


 

Airport Tracker/Info


-or-


 

Live Flight TrackerFlight Track Log ✈ FLG3642 ✈ 24-Apr-2013 ✈ KATL - KMDT

Flight Track Log - Related Links

Times and Time Zones

All times are in EDT time to prevent confusion due to time zone crossing. See the FLG3642 flight status page for this flight to view local times or setup timezone preferences in your user account.

Time Position Orientation Groundspeed Altitude Reporting Facility
EDT Latitude Longitude Course Direction KTS MPH feet Rate Location/Type
09:31AM 33.6500 -84.4833 11° North 195 224 3,200  Level Atlanta TRACON
09:32AM 33.6833 -84.5667 296° West 262 302 5,700 2,700 Climbing Atlanta TRACON
09:33AM 33.7500 -84.5833 348° North 297 342 8,100 2,100 Climbing Atlanta TRACON
09:34AM 33.9328 -84.2662 320° Northwest  Level FlightAware Approximate
09:35AM 34.0560 -84.2667 North  Level FlightAware Approximate
09:35AM 33.8936 -84.4642 35° Northeast 292 336 12,300  Level Atlanta Center
09:36AM 34.1794 -84.2667 North  Level FlightAware Approximate
09:36AM 33.9919 -84.3819 35° Northeast 383 441 13,900  Level Atlanta Center
09:37AM 34.3023 -84.2621 11° North  Level FlightAware Approximate
09:37AM 34.0819 -84.3497 17° North 370 426 15,100  Level Atlanta Center
09:38AM 34.2092 -84.3100 14° North 405 466 16,700 1,380 Climbing Atlanta Center
09:39AM 34.3242 -84.2728 15° North 414 476 17,900 1,200 Climbing Atlanta Center
09:40AM 34.4264 -84.2478 11° North 414 476 19,100 1,260 Climbing Atlanta Center
09:41AM 34.5433 -84.2228 10° North 414 476 20,500 1,440 Climbing Atlanta Center
09:42AM 34.6561 -84.1953 11° North 409 471 22,000 1,440 Climbing Atlanta Center
09:43AM 34.7689 -84.1678 11° North 409 471 23,400 1,200 Climbing Atlanta Center
09:44AM 34.8794 -84.1425 11° North 409 471 24,500 1,020 Climbing Atlanta Center
09:45AM 34.9964 -84.1147 11° North 409 471 25,500 960 Climbing Atlanta Center
09:46AM 35.1092 -84.0894 10° North 409 471 26,500 840 Climbing Atlanta Center
09:47AM 35.2258 -84.0617 11° North 409 471 27,200 660 Climbing Atlanta Center
09:48AM 35.3406 -84.0336 11° North 414 476 27,900 660 Climbing Atlanta Center
09:49AM 35.4594 -84.0031 12° North 419 482 28,600 660 Climbing Atlanta Center
09:50AM 35.5786 -83.9750 11° North 424 488 29,300 600 Climbing Atlanta Center
09:51AM 35.6975 -83.9442 12° North 430 495 29,800 480 Climbing Atlanta Center
09:52AM 35.8206 -83.9133 11° North 435 501 30,300 480 Climbing Atlanta Center
09:53AM 35.9433 -83.8719 15° North 435 501 30,800 300 Climbing Atlanta Center
09:54AM 36.0558 -83.8025 27° Northeast 442 509 31,000 60 Climbing Atlanta Center
09:55AM 36.1725 -83.7275 27° Northeast 454 522 31,000  Level Atlanta Center
09:57AM 36.3831 -83.5914 27° Northeast 480 552 31,000  Level Indianapolis Center
09:58AM 36.5256 -83.5022 27° Northeast 478 550 31,000  Level Indianapolis Center
09:59AM 36.6433 -83.4256 28° Northeast 471 542 31,000  Level Indianapolis Center
10:00AM 36.7606 -83.3500 27° Northeast 470 541 31,000  Level Indianapolis Center
10:01AM 36.8750 -83.2656 31° Northeast 471 542 31,000  Level Indianapolis Center
10:02AM 36.9633 -83.1347 50° Northeast 483 556 31,000  Level Indianapolis Center
10:03AM 37.0525 -83.0033 50° Northeast 484 557 31,000  Level Indianapolis Center
10:04AM 37.1414 -82.8700 50° Northeast 487 560 31,000  Level Indianapolis Center
10:05AM 37.2286 -82.7383 50° Northeast 487 560 31,000  Level Indianapolis Center
10:07AM 37.3169 -82.6061 50° Northeast 491 565 31,000  Level Indianapolis Center
10:08AM 37.4200 -82.4511 50° Northeast 494 568 31,000  Level Indianapolis Center
10:09AM 37.5083 -82.3169 50° Northeast 494 568 31,000  Level Indianapolis Center
10:10AM 37.5958 -82.1825 51° Northeast 496 571 31,000  Level Indianapolis Center
10:11AM 37.6844 -82.0486 50° Northeast 495 570 31,000  Level Indianapolis Center
10:12AM 37.7719 -81.9136 51° Northeast 494 568 31,000  Level Indianapolis Center
10:13AM 37.8594 -81.7781 51° Northeast 493 567 31,000  Level Indianapolis Center
10:14AM 37.9458 -81.6447 51° Northeast 492 566 31,000  Level Indianapolis Center
10:15AM 38.0486 -81.4836 51° Northeast 493 567 31,000  Level Indianapolis Center
10:16AM 38.1333 -81.3492 51° Northeast 491 565 31,000  Level Indianapolis Center
10:17AM 38.2186 -81.2139 51° Northeast 493 567 31,000  Level Indianapolis Center
10:18AM 38.3175 -81.0647 50° Northeast 495 570 31,000  Level Washington Center
10:19AM 38.3889 -80.9444 53° Northeast 492 566 31,000  Level Indianapolis Center
10:20AM 38.4733 -80.8097 51° Northeast 489 563 31,000  Level Indianapolis Center
10:21AM 38.5742 -80.6478 51° Northeast 488 562 31,000  Level Indianapolis Center
10:22AM 38.6594 -80.5117 51° Northeast 491 565 31,000 -480 Level Indianapolis Center
10:23AM 38.7436 -80.3753 52° Northeast 490 564 30,100 -960 Descending Indianapolis Center
10:24AM 38.8281 -80.2381 52° Northeast 491 565 29,100 -600 Descending Indianapolis Center
10:25AM 38.9167 -80.0928 52° Northeast 486 559 29,000 -60 Descending Washington Center
10:26AM 38.9664 -79.9303 68° East 481 554 29,000  Level Washington Center
10:27AM 39.0072 -79.7803 71° East 481 554 29,000  Level Washington Center
10:28AM 39.0567 -79.6122 69° East 486 559 29,000  Level Washington Center
10:29AM 39.1019 -79.4461 71° East 492 566 29,000  Level Washington Center
10:30AM 39.1486 -79.2825 70° East 486 559 29,000  Level Washington Center
10:31AM 39.1911 -79.1186 71° East 481 554 29,000 -960 Level Washington Center
10:32AM 39.2436 -78.9603 67° East 481 554 27,100 -2,400 Descending Washington Center
10:33AM 39.3247 -78.8111 55° Northeast 457 526 24,200 -2,820 Descending Washington Center
10:34AM 39.3928 -78.6800 56° Northeast 451 519 21,500 -2,580 Descending Washington Center
10:35AM 39.4606 -78.5539 55° Northeast 441 507 19,100 -2,400 Descending Washington Center
10:36AM 39.5261 -78.4300 56° Northeast 428 493 16,800 -2,100 Descending Washington Center
10:37AM 39.5914 -78.3114 54° Northeast 417 480 15,000 -780 Descending Washington Center
10:39AM 39.6814 -78.1358 56° Northeast 416 479 14,900 -60 Descending New York Center
10:40AM 39.6925 -77.9886 84° East 403 464 14,900  Level New York Center
10:41AM 39.7094 -77.8472 81° East 398 458 15,000  Climbing New York Center
10:42AM 39.7844 -77.7439 47° Northeast 380 437 15,000  Level New York Center
10:43AM 39.8611 -77.6433 45° Northeast 377 434 15,000 -180 Level New York Center
10:44AM 39.9289 -77.5553 45° Northeast 387 445 14,700 -1,200 Descending New York Center
10:45AM 40.0031 -77.4594 45° Northeast 344 396 12,600 -2,340 Descending New York Center
10:46AM 40.0750 -77.3686 44° Northeast 332 382 10,200 -2,100 Descending New York Center
10:47AM 40.1311 -77.2953 45° Northeast 325 374 8,400 -2,400 Descending New York Center
10:48AM 40.1942 -77.2086 46° Northeast 307 353 5,400 -2,100 Descending New York Center
10:49AM 40.2436 -77.1453 44° Northeast 291 335 4,200 -1,200 Descending New York Center
10:50AM 40.2814 -77.0644 58° Northeast 247 284 3,100 -600 Descending New York Center
10:51AM 40.2811 -76.9908 90° East 229 264 3,100 -60 Level New York Center
10:52AM 40.2664 -76.9106 103° East 217 250 3,000 -120 Descending New York Center